Southwell, United Kingdom
Current Conditions -  °F | °C
As of 10:50 AM on Wednesday 26 Nov 2014 (Local Time) from EGXW Reporting Station
Light Rain Light Rain  
Wind Chill: 40°   Ceiling: 3500
Heat Index: 45°   Visibility: 3mi
Dew Point: 45°   Wind: 9mph
Humidity: 100%   Direction: 90°E
Pressure: 29.91"   Gusts: NA
Location:  53.08°N, 0.96°W
Report Text: EGXW 261050Z 09008KT 5000 -RA FEW005 SCT022 OVC035 07/07 Q1013 WHT BECMG 3000 RADZ BKN004 YLO2
Loading
Personal Weather Stations






























Interactive Weather Map New forecast layout! Learn more

10-Day Weather Forecast

Advertisements
Track Severe Weather on mobile